createdAt,value
2019-03-13T00:02:12.699Z,-0.60
2019-03-13T00:04:43.841Z,-0.50
2019-03-13T00:07:14.908Z,-0.50
2019-03-13T00:09:46.757Z,-0.60
2019-03-13T00:12:17.260Z,-0.50
2019-03-13T00:14:47.873Z,-0.50
2019-03-13T00:17:18.367Z,-0.50
2019-03-13T00:19:52.854Z,-0.50
2019-03-13T00:22:24.023Z,-0.50
2019-03-13T00:24:57.450Z,-0.60
2019-03-13T00:27:30.396Z,-0.60
2019-03-13T00:30:01.966Z,-0.60
2019-03-13T00:32:34.108Z,-0.60
2019-03-13T00:35:05.940Z,-0.70
2019-03-13T00:37:36.465Z,-0.70
2019-03-13T00:40:12.416Z,-0.70
2019-03-13T00:42:45.104Z,-0.70
2019-03-13T00:45:16.020Z,-0.70
2019-03-13T00:47:49.456Z,-0.70
2019-03-13T00:50:30.123Z,-0.70
2019-03-13T00:53:00.741Z,-0.70
2019-03-13T00:55:31.204Z,-0.70
2019-03-13T00:58:04.927Z,-0.70
2019-03-13T01:00:56.280Z,-0.70
2019-03-13T01:03:32.263Z,-0.70
2019-03-13T01:06:14.324Z,-0.60
2019-03-13T01:08:44.889Z,-0.70
2019-03-13T01:11:15.363Z,-0.70
2019-03-13T01:13:45.865Z,-0.70
2019-03-13T01:16:16.336Z,-0.70
2019-03-13T01:18:48.371Z,-0.70
2019-03-13T01:21:19.702Z,-0.70
2019-03-13T01:23:53.638Z,-0.60
2019-03-13T01:26:27.128Z,-0.60
2019-03-13T01:28:57.606Z,-0.60
2019-03-13T01:31:27.878Z,-0.60
2019-03-13T01:34:16.319Z,-0.60
2019-03-13T01:36:47.953Z,-0.60
2019-03-13T01:39:18.448Z,-0.60
2019-03-13T01:41:49.050Z,-0.60
2019-03-13T01:44:19.522Z,-0.60
2019-03-13T01:46:50.047Z,-0.50
2019-03-13T01:49:22.410Z,-0.60
2019-03-13T01:51:52.931Z,-0.60
2019-03-13T01:54:24.945Z,-0.60
2019-03-13T01:56:55.434Z,-0.50
2019-03-13T01:59:29.070Z,-0.50
2019-03-13T02:01:59.568Z,-0.50
2019-03-13T02:04:30.045Z,-0.50
2019-03-13T02:07:00.536Z,-0.50
2019-03-13T02:09:31.082Z,-0.50
2019-03-13T02:12:01.642Z,-0.50
2019-03-13T02:14:32.117Z,-0.50
2019-03-13T02:17:03.028Z,-0.60
2019-03-13T02:19:34.199Z,-0.60
2019-03-13T02:22:04.771Z,-0.60
2019-03-13T02:24:35.236Z,-0.70
2019-03-13T02:27:05.805Z,-0.70
2019-03-13T02:29:37.986Z,-0.70
2019-03-13T02:32:09.161Z,-0.80
2019-03-13T02:34:40.415Z,-0.80
2019-03-13T02:37:14.115Z,-0.70
2019-03-13T02:39:46.480Z,-0.70
2019-03-13T02:42:16.990Z,-0.70
2019-03-13T02:44:47.473Z,-0.70
2019-03-13T02:47:19.751Z,-0.70
2019-03-13T02:49:50.193Z,-0.70
2019-03-13T02:52:22.243Z,-0.70
2019-03-13T02:54:52.732Z,-0.80
2019-03-13T02:57:23.289Z,-0.80
2019-03-13T02:59:53.802Z,-0.90
2019-03-13T03:02:28.590Z,-0.90
2019-03-13T03:04:59.691Z,-1.00
2019-03-13T03:07:31.704Z,-1.00
2019-03-13T03:10:02.290Z,-1.10
2019-03-13T03:12:33.920Z,-1.10
2019-03-13T03:15:11.973Z,-1.10
2019-03-13T03:17:42.538Z,-1.10
2019-03-13T03:20:16.752Z,-1.10
2019-03-13T03:22:47.743Z,-1.20
2019-03-13T03:25:19.147Z,-1.10
2019-03-13T03:27:51.005Z,-1.10
2019-03-13T03:30:26.533Z,-1.10
2019-03-13T03:32:57.228Z,-1.10
2019-03-13T03:35:27.695Z,-1.10
2019-03-13T03:37:59.265Z,-1.20
2019-03-13T03:40:32.520Z,-1.10
2019-03-13T03:43:03.979Z,-1.10
2019-03-13T03:45:34.455Z,-1.10
2019-03-13T03:48:05.046Z,-1.10
2019-03-13T03:50:37.036Z,-1.00
2019-03-13T03:53:07.597Z,-1.00
2019-03-13T03:55:38.129Z,-1.00
2019-03-13T03:58:08.664Z,-0.90
2019-03-13T04:00:39.423Z,-0.90
2019-03-13T04:03:11.279Z,-0.90
2019-03-13T04:05:42.624Z,-0.90
2019-03-13T04:08:13.165Z,-0.90
2019-03-13T04:10:43.743Z,-0.90
2019-03-13T04:13:14.268Z,-0.80
2019-03-13T04:15:44.834Z,-0.80
2019-03-13T04:18:15.784Z,-0.70
2019-03-13T04:20:46.378Z,-0.70
2019-03-13T04:23:16.913Z,-0.70
2019-03-13T04:25:48.372Z,-0.70
2019-03-13T04:28:18.908Z,-0.70
2019-03-13T04:30:51.274Z,-0.70
2019-03-13T04:33:21.780Z,-0.70
2019-03-13T04:35:54.007Z,-0.70
2019-03-13T04:38:24.437Z,-0.60
2019-03-13T04:40:54.928Z,-0.60
2019-03-13T04:43:25.436Z,-0.60
2019-03-13T04:45:57.532Z,-0.60
2019-03-13T04:48:28.106Z,-0.60
2019-03-13T04:50:58.581Z,-0.60
2019-03-13T04:53:29.075Z,-0.60
2019-03-13T04:55:59.557Z,-0.60
2019-03-13T04:58:31.699Z,-0.60
2019-03-13T05:01:02.223Z,-0.60
2019-03-13T05:03:38.983Z,-0.60
2019-03-13T05:06:14.183Z,-0.60
2019-03-13T05:08:45.711Z,-0.60
2019-03-13T05:11:16.370Z,-0.60
2019-03-13T05:13:48.381Z,-0.50
2019-03-13T05:16:18.903Z,-0.50
2019-03-13T05:18:49.380Z,-0.50
2019-03-13T05:21:22.802Z,-0.50
2019-03-13T05:23:53.283Z,-0.40
2019-03-13T05:26:23.792Z,-0.40
2019-03-13T05:28:55.073Z,-0.50
2019-03-13T05:31:26.761Z,-0.40
2019-03-13T05:33:57.367Z,-0.40
2019-03-13T05:36:27.844Z,-0.40
2019-03-13T05:39:01.268Z,-0.40
2019-03-13T05:41:31.736Z,-0.30
2019-03-13T05:44:02.241Z,-0.30
2019-03-13T05:46:32.721Z,-0.20
2019-03-13T05:49:03.226Z,-0.20
2019-03-13T05:51:34.045Z,-0.20
2019-03-13T05:54:04.641Z,-0.20
2019-03-13T05:56:35.108Z,-0.10
2019-03-13T05:59:05.601Z,0.00
2019-03-13T06:01:36.089Z,0.10
2019-03-13T06:04:07.954Z,0.10
2019-03-13T06:06:38.418Z,0.20
2019-03-13T06:09:10.093Z,0.20
2019-03-13T06:11:40.654Z,0.20
2019-03-13T06:14:11.708Z,0.20
2019-03-13T06:16:43.815Z,0.30
2019-03-13T06:19:15.333Z,0.30
2019-03-13T06:21:45.822Z,0.30
2019-03-13T06:24:16.287Z,0.40
2019-03-13T06:26:46.776Z,0.50
2019-03-13T06:29:17.237Z,0.60
2019-03-13T06:31:47.755Z,0.60
2019-03-13T06:34:18.212Z,0.60
2019-03-13T06:36:48.702Z,0.70
2019-03-13T06:39:19.184Z,0.70
2019-03-13T06:41:49.694Z,0.80
2019-03-13T06:44:21.745Z,0.80
2019-03-13T06:46:52.320Z,0.80
2019-03-13T06:49:24.999Z,0.80
2019-03-13T06:51:55.611Z,0.80
2019-03-13T06:54:26.046Z,0.90
2019-03-13T06:56:56.566Z,0.90
2019-03-13T06:59:29.234Z,1.00
2019-03-13T07:02:14.569Z,0.90
2019-03-13T07:05:01.741Z,1.00
2019-03-13T07:07:39.899Z,1.10
2019-03-13T07:10:12.881Z,1.10
2019-03-13T07:12:46.525Z,1.20
2019-03-13T07:15:20.232Z,1.40
2019-03-13T07:18:04.483Z,1.50
2019-03-13T07:20:43.202Z,1.60
2019-03-13T07:23:18.046Z,1.70
2019-03-13T07:25:59.373Z,1.80
2019-03-13T07:28:38.321Z,1.80
2019-03-13T07:31:13.197Z,1.90
2019-03-13T07:33:46.352Z,2.10
2019-03-13T07:36:24.800Z,2.30
2019-03-13T07:39:00.045Z,2.30
2019-03-13T07:41:32.161Z,2.40
2019-03-13T07:44:09.499Z,2.40
2019-03-13T07:46:50.625Z,2.30
2019-03-13T07:49:39.704Z,2.40
2019-03-13T07:52:32.538Z,2.40
2019-03-13T07:55:19.981Z,2.50
2019-03-13T07:58:06.388Z,2.70
2019-03-13T08:00:55.795Z,2.70
2019-03-13T08:03:26.029Z,2.70
2019-03-13T08:06:08.398Z,2.80
2019-03-13T08:08:43.475Z,2.90
2019-03-13T08:11:27.549Z,3.00
2019-03-13T08:14:14.699Z,3.00
2019-03-13T08:16:55.898Z,3.10
2019-03-13T08:19:31.728Z,3.20
2019-03-13T08:22:05.345Z,3.30
2019-03-13T08:24:37.436Z,3.40
2019-03-13T08:27:10.242Z,3.40
2019-03-13T08:29:46.336Z,3.30
2019-03-13T08:32:24.267Z,3.20
2019-03-13T08:35:08.854Z,3.10
2019-03-13T08:37:43.726Z,3.10
2019-03-13T08:40:16.210Z,3.10
2019-03-13T08:42:58.686Z,3.10
2019-03-13T08:45:30.804Z,3.20
2019-03-13T08:48:07.394Z,3.30
2019-03-13T08:50:39.531Z,3.40
2019-03-13T08:53:12.779Z,3.60
2019-03-13T08:55:45.000Z,3.70
2019-03-13T08:58:33.343Z,3.80
2019-03-13T09:01:04.158Z,4.00
2019-03-13T09:03:52.323Z,4.20
2019-03-13T09:06:33.508Z,4.30
2019-03-13T09:09:09.778Z,4.50
2019-03-13T09:11:42.389Z,4.50
2019-03-13T09:14:30.844Z,4.60
2019-03-13T09:17:12.839Z,4.70
2019-03-13T09:20:02.563Z,4.80
2019-03-13T09:22:36.209Z,4.70
2019-03-13T09:25:12.694Z,4.70
2019-03-13T09:28:04.673Z,4.70
2019-03-13T09:30:36.838Z,4.80
2019-03-13T09:33:13.195Z,4.90
2019-03-13T09:35:46.863Z,4.90
2019-03-13T09:38:30.963Z,5.00
2019-03-13T09:41:03.122Z,5.10
2019-03-13T09:43:53.001Z,5.10
2019-03-13T09:46:28.038Z,5.10
2019-03-13T09:49:04.231Z,5.10
2019-03-13T09:51:36.812Z,5.10
2019-03-13T09:54:21.017Z,5.10
2019-03-13T09:57:10.959Z,5.00
2019-03-13T09:59:43.549Z,5.00
2019-03-13T10:02:22.372Z,4.80
2019-03-13T10:04:54.479Z,4.70
2019-03-13T10:07:28.162Z,4.60
2019-03-13T10:10:07.431Z,4.50
2019-03-13T10:12:47.492Z,4.40
2019-03-13T10:15:31.545Z,4.50
2019-03-13T10:18:04.749Z,4.50
2019-03-13T10:20:42.775Z,4.50
2019-03-13T10:23:29.964Z,4.50
2019-03-13T10:26:11.167Z,4.40
2019-03-13T10:28:55.400Z,4.40
2019-03-13T10:31:33.134Z,4.30
2019-03-13T10:34:08.919Z,4.20
2019-03-13T10:36:41.023Z,4.20
2019-03-13T10:39:30.277Z,4.10
2019-03-13T10:42:08.125Z,4.10
2019-03-13T10:44:40.987Z,4.10
2019-03-13T10:47:25.958Z,4.10
2019-03-13T10:50:05.139Z,4.10
2019-03-13T10:52:44.506Z,4.10
2019-03-13T10:55:31.266Z,4.10
2019-03-13T10:58:11.865Z,4.00
2019-03-13T11:00:54.048Z,3.80
2019-03-13T11:03:43.951Z,3.80
2019-03-13T11:06:24.885Z,3.80
2019-03-13T11:09:07.853Z,3.80
2019-03-13T11:11:45.954Z,3.80
2019-03-13T11:14:31.244Z,3.80
2019-03-13T11:17:08.882Z,3.80
2019-03-13T11:19:46.226Z,3.80
2019-03-13T11:22:24.237Z,3.70
2019-03-13T11:24:56.329Z,3.70
2019-03-13T11:27:45.949Z,3.60
2019-03-13T11:30:25.694Z,3.60
2019-03-13T11:33:13.111Z,3.70
2019-03-13T11:35:43.363Z,3.70
2019-03-13T11:38:25.143Z,3.70
2019-03-13T11:40:58.365Z,3.60
2019-03-13T11:43:30.487Z,3.60
2019-03-13T11:46:05.523Z,3.60
2019-03-13T11:48:46.889Z,3.60
2019-03-13T11:51:30.064Z,3.70
2019-03-13T11:54:05.064Z,3.80
2019-03-13T11:56:53.384Z,3.80
2019-03-13T11:59:28.241Z,3.80
2019-03-13T12:02:04.707Z,3.80
2019-03-13T12:04:37.639Z,3.70
2019-03-13T12:07:09.830Z,3.70
2019-03-13T12:09:41.970Z,3.60
2019-03-13T12:12:16.418Z,3.70
2019-03-13T12:14:48.550Z,3.60
2019-03-13T12:17:23.697Z,3.50
2019-03-13T12:19:55.855Z,3.60
2019-03-13T12:22:34.039Z,3.60
2019-03-13T12:25:10.952Z,3.60
2019-03-13T12:27:47.180Z,3.60
2019-03-13T12:30:20.500Z,3.50
2019-03-13T12:32:55.251Z,3.50
2019-03-13T12:35:43.577Z,3.50
2019-03-13T12:38:19.890Z,3.60
2019-03-13T12:41:04.227Z,3.60
2019-03-13T12:43:39.245Z,3.70
2019-03-13T12:46:29.509Z,3.80
2019-03-13T12:49:17.669Z,3.80
2019-03-13T12:52:07.244Z,3.90
2019-03-13T12:54:46.867Z,4.00
2019-03-13T12:57:29.696Z,4.00
2019-03-13T13:00:11.039Z,4.10
2019-03-13T13:02:41.313Z,4.10
2019-03-13T13:05:30.405Z,4.20
2019-03-13T13:08:03.356Z,4.20
2019-03-13T13:10:41.260Z,4.20
2019-03-13T13:13:29.880Z,4.20
2019-03-13T13:16:04.053Z,4.30
2019-03-13T13:18:51.398Z,4.30
2019-03-13T13:21:23.220Z,4.30
2019-03-13T13:23:53.786Z,4.40
2019-03-13T13:26:24.381Z,4.40
2019-03-13T13:28:54.965Z,4.40
2019-03-13T13:31:25.443Z,4.40
2019-03-13T13:33:55.944Z,4.40
2019-03-13T13:36:28.897Z,4.40
2019-03-13T13:38:59.435Z,4.30
2019-03-13T13:41:31.101Z,4.30
2019-03-13T13:44:01.619Z,4.30
2019-03-13T13:46:33.584Z,4.30
2019-03-13T13:49:06.256Z,4.30
2019-03-13T13:51:37.540Z,4.30
2019-03-13T13:54:10.707Z,4.40
2019-03-13T13:56:41.190Z,4.40
2019-03-13T13:59:12.897Z,4.50
2019-03-13T14:01:44.915Z,4.60
2019-03-13T14:04:15.418Z,4.60
2019-03-13T14:06:45.877Z,4.70
2019-03-13T14:09:16.376Z,4.60
2019-03-13T14:11:46.831Z,4.50
2019-03-13T14:14:17.328Z,4.50
2019-03-13T14:16:47.814Z,4.40
2019-03-13T14:19:19.086Z,4.50
2019-03-13T14:21:49.558Z,4.50
2019-03-13T14:24:20.030Z,4.60
2019-03-13T14:26:51.172Z,4.60
2019-03-13T14:29:21.623Z,4.60
2019-03-13T14:31:52.133Z,4.60
2019-03-13T14:34:24.107Z,4.70
2019-03-13T14:36:54.574Z,4.70
2019-03-13T14:39:27.681Z,4.70
2019-03-13T14:41:58.142Z,4.70
2019-03-13T14:44:28.686Z,4.80
2019-03-13T14:46:59.164Z,4.80
2019-03-13T14:49:30.330Z,4.90
2019-03-13T14:52:03.098Z,4.80
2019-03-13T14:54:33.586Z,4.70
2019-03-13T14:57:05.685Z,4.70
2019-03-13T14:59:36.181Z,4.80
2019-03-13T15:02:08.300Z,5.00
2019-03-13T15:04:38.752Z,4.90
2019-03-13T15:07:12.189Z,5.00
2019-03-13T15:09:46.043Z,4.90
2019-03-13T15:12:16.526Z,5.00
2019-03-13T15:14:47.003Z,4.90
2019-03-13T15:17:17.491Z,4.90
2019-03-13T15:19:50.784Z,4.90
2019-03-13T15:22:22.459Z,4.90
2019-03-13T15:24:52.912Z,4.80
2019-03-13T15:27:23.421Z,4.70
2019-03-13T15:29:56.187Z,4.70
2019-03-13T15:32:29.459Z,4.70
2019-03-13T15:34:59.914Z,4.60
2019-03-13T15:37:31.072Z,4.60
2019-03-13T15:40:01.713Z,4.60
2019-03-13T15:42:32.967Z,4.60
2019-03-13T15:45:07.793Z,4.50
2019-03-13T15:47:38.944Z,4.50
2019-03-13T15:50:16.967Z,4.50
2019-03-13T15:52:49.073Z,4.50
2019-03-13T15:55:21.306Z,4.50
2019-03-13T15:57:51.803Z,4.40
2019-03-13T16:00:31.740Z,4.40
2019-03-13T16:03:02.313Z,4.40
2019-03-13T16:05:33.818Z,4.30
2019-03-13T16:08:04.322Z,4.30
2019-03-13T16:10:34.786Z,4.30
2019-03-13T16:13:06.913Z,4.30
2019-03-13T16:15:40.458Z,4.30
2019-03-13T16:18:11.477Z,4.30
2019-03-13T16:20:43.344Z,4.30
2019-03-13T16:23:16.978Z,4.30
2019-03-13T16:25:46.119Z,4.30
2019-03-13T16:28:16.584Z,4.30
2019-03-13T16:30:51.561Z,4.20
2019-03-13T16:33:23.988Z,4.20
2019-03-13T16:35:54.574Z,4.10
2019-03-13T16:38:25.702Z,4.10
2019-03-13T16:40:57.747Z,4.10
2019-03-13T16:43:28.264Z,4.10
2019-03-13T16:45:58.717Z,4.00
2019-03-13T16:48:29.290Z,4.00
2019-03-13T16:51:00.113Z,3.90
2019-03-13T16:53:33.358Z,3.90
2019-03-13T16:56:04.858Z,3.80
2019-03-13T16:58:38.402Z,3.80
2019-03-13T17:01:09.770Z,3.80
2019-03-13T17:03:40.225Z,3.90
2019-03-13T17:06:10.734Z,3.80
2019-03-13T17:08:42.343Z,3.80
2019-03-13T17:11:12.807Z,3.80
2019-03-13T17:13:43.323Z,3.80
2019-03-13T17:16:15.321Z,3.80
2019-03-13T17:18:45.890Z,3.70
2019-03-13T17:21:17.073Z,3.70
2019-03-13T17:23:47.569Z,3.70
2019-03-13T17:26:18.036Z,3.70
2019-03-13T17:28:50.890Z,3.70
2019-03-13T17:31:21.362Z,3.70
2019-03-13T17:33:53.391Z,3.70
2019-03-13T17:36:26.188Z,3.70
2019-03-13T17:38:56.693Z,3.70
2019-03-13T17:41:27.151Z,3.70
2019-03-13T17:43:57.656Z,3.70
2019-03-13T17:46:28.146Z,3.70
2019-03-13T17:49:01.109Z,3.70
2019-03-13T17:51:33.145Z,3.70
2019-03-13T17:54:04.811Z,3.70
2019-03-13T17:56:35.295Z,3.60
2019-03-13T17:59:05.850Z,3.60
2019-03-13T18:01:39.399Z,3.60
2019-03-13T18:04:09.847Z,3.60
2019-03-13T18:06:42.998Z,3.60
2019-03-13T18:09:13.484Z,3.60
2019-03-13T18:11:43.978Z,3.50
2019-03-13T18:14:14.439Z,3.40
2019-03-13T18:16:44.931Z,3.30
2019-03-13T18:19:15.391Z,3.30
2019-03-13T18:21:45.883Z,3.30
2019-03-13T18:24:17.141Z,3.30
2019-03-13T18:26:50.363Z,3.30
2019-03-13T18:29:22.340Z,3.30
2019-03-13T18:31:52.827Z,3.30
2019-03-13T18:34:23.368Z,3.30
2019-03-13T18:36:54.725Z,3.30
2019-03-13T18:39:25.263Z,3.30
2019-03-13T18:41:55.749Z,3.20
2019-03-13T18:44:26.211Z,3.20
2019-03-13T18:46:56.711Z,3.10
2019-03-13T18:49:28.384Z,3.10
2019-03-13T18:51:58.891Z,3.00
2019-03-13T18:54:29.354Z,3.00
2019-03-13T18:56:59.857Z,3.00
2019-03-13T18:59:30.324Z,3.00
2019-03-13T19:02:00.857Z,2.90
2019-03-13T19:04:31.326Z,2.90
2019-03-13T19:07:01.838Z,2.90
2019-03-13T19:09:32.950Z,2.80
2019-03-13T19:12:05.999Z,2.80
2019-03-13T19:14:36.505Z,2.70
2019-03-13T19:17:08.156Z,2.70
2019-03-13T19:19:40.738Z,2.70
2019-03-13T19:22:11.219Z,2.60
2019-03-13T19:24:42.906Z,2.60
2019-03-13T19:27:13.460Z,2.60
2019-03-13T19:29:45.856Z,2.60
2019-03-13T19:32:16.459Z,2.60
2019-03-13T19:34:47.419Z,2.50
2019-03-13T19:37:17.898Z,2.50
2019-03-13T19:39:48.476Z,2.50
2019-03-13T19:42:19.157Z,2.50
2019-03-13T19:44:49.668Z,2.50
2019-03-13T19:47:22.084Z,2.50
2019-03-13T19:49:56.926Z,2.50
2019-03-13T19:52:27.388Z,2.50
2019-03-13T19:54:59.466Z,2.60
2019-03-13T19:57:29.923Z,2.60
2019-03-13T20:00:00.485Z,2.60
2019-03-13T20:02:30.947Z,2.60
2019-03-13T20:05:02.037Z,2.60
2019-03-13T20:07:33.754Z,2.60
2019-03-13T20:10:08.770Z,2.60
2019-03-13T20:12:39.240Z,2.60
2019-03-13T20:15:15.971Z,2.60
2019-03-13T20:17:46.511Z,2.50
2019-03-13T20:20:19.896Z,2.50
2019-03-13T20:22:57.621Z,2.50
2019-03-13T20:25:28.158Z,2.50
2019-03-13T20:28:00.378Z,2.40
2019-03-13T20:30:31.005Z,2.50
2019-03-13T20:33:01.652Z,2.50
2019-03-13T20:35:32.646Z,2.40
2019-03-13T20:38:04.743Z,2.50
2019-03-13T20:40:35.278Z,2.50
2019-03-13T20:43:05.846Z,2.40
2019-03-13T20:45:36.381Z,2.40
2019-03-13T20:48:07.004Z,2.40
2019-03-13T20:50:38.181Z,2.40
2019-03-13T20:53:10.627Z,2.30
2019-03-13T20:55:42.267Z,2.40
2019-03-13T20:58:12.731Z,2.30
2019-03-13T21:00:43.287Z,2.40
2019-03-13T21:03:13.908Z,2.40
2019-03-13T21:05:44.554Z,2.40
2019-03-13T21:08:15.015Z,2.40
2019-03-13T21:10:45.522Z,2.40
2019-03-13T21:13:17.547Z,2.40
2019-03-13T21:15:48.012Z,2.40
2019-03-13T21:18:18.510Z,2.50
2019-03-13T21:20:49.019Z,2.50
2019-03-13T21:23:19.489Z,2.50
2019-03-13T21:25:50.658Z,2.50
2019-03-13T21:28:21.120Z,2.50
2019-03-13T21:30:51.643Z,2.60
2019-03-13T21:33:22.107Z,2.60
2019-03-13T21:35:55.338Z,2.50
2019-03-13T21:38:26.438Z,2.60
2019-03-13T21:40:58.202Z,2.60
2019-03-13T21:43:28.685Z,2.60
2019-03-13T21:45:59.274Z,2.60
2019-03-13T21:48:29.776Z,2.60
2019-03-13T21:51:01.806Z,2.60
2019-03-13T21:53:32.297Z,2.60
2019-03-13T21:56:02.797Z,2.50
2019-03-13T21:58:33.272Z,2.50
2019-03-13T22:01:03.743Z,2.50
2019-03-13T22:03:34.241Z,2.50
2019-03-13T22:06:04.705Z,2.60
2019-03-13T22:08:35.194Z,2.60
2019-03-13T22:11:05.791Z,2.60
2019-03-13T22:13:36.264Z,2.60
2019-03-13T22:16:06.755Z,2.50
2019-03-13T22:18:37.236Z,2.50
2019-03-13T22:21:07.803Z,2.60
2019-03-13T22:23:38.331Z,2.60
2019-03-13T22:26:08.849Z,2.60
2019-03-13T22:28:39.321Z,2.60
2019-03-13T22:31:09.813Z,2.60
2019-03-13T22:33:40.900Z,2.60
2019-03-13T22:36:11.367Z,2.60
2019-03-13T22:38:43.399Z,2.70
2019-03-13T22:41:16.698Z,2.60
2019-03-13T22:43:47.275Z,2.60
2019-03-13T22:46:17.747Z,2.60
2019-03-13T22:48:57.688Z,2.60
2019-03-13T22:51:20.417Z,2.70
2019-03-13T22:53:50.921Z,2.70
2019-03-13T22:56:22.680Z,2.70
2019-03-13T22:58:53.232Z,2.70
2019-03-13T23:01:24.535Z,2.70
2019-03-13T23:03:55.089Z,2.70
2019-03-13T23:06:25.657Z,2.80
2019-03-13T23:08:56.204Z,2.80
2019-03-13T23:11:26.716Z,2.80
2019-03-13T23:14:01.639Z,2.70
2019-03-13T23:16:34.202Z,2.70
2019-03-13T23:19:04.831Z,2.60
2019-03-13T23:21:35.286Z,2.60
2019-03-13T23:24:05.841Z,2.60
2019-03-13T23:26:36.403Z,2.50
2019-03-13T23:29:08.793Z,2.50
2019-03-13T23:31:39.247Z,2.50
2019-03-13T23:34:09.761Z,2.50
2019-03-13T23:36:40.271Z,2.60
2019-03-13T23:39:13.036Z,2.70
2019-03-13T23:41:45.103Z,2.70
2019-03-13T23:44:16.388Z,2.70
2019-03-13T23:46:46.857Z,2.70
2019-03-13T23:49:17.583Z,2.70
2019-03-13T23:51:48.222Z,2.70
2019-03-13T23:54:18.747Z,2.70
2019-03-13T23:56:49.998Z,2.60
2019-03-13T23:59:22.027Z,2.60
